Time;durP1;ratioP1;P1;durP2;ratioP2;P2;SDS_P1;SDS_P2;PMS_P1;PMS_P2;Temp;Humidity;BMP_temperature;BMP_pressure;BME280_temperature;BME280_humidity;BME280_pressure;Samples;Min_cycle;Max_cycle;Signal;HPM_P1;HPM_P2
2021/04/19 00:01:26;;;;;;;16.10;6.95;;;;;;;7.43;58.33;101483.44;4377286;32;20080;-74
2021/04/19 00:03:52;;;;;;;14.57;6.25;;;;;;;7.46;58.38;101487.47;4371418;32;20616;-74
2021/04/19 00:06:19;;;;;;;11.50;5.50;;;;;;;7.29;58.89;101480.66;4374597;32;20051;-73
2021/04/19 00:08:45;;;;;;;15.30;5.90;;;;;;;7.25;58.99;101479.03;4375161;32;20106;-74
2021/04/19 00:11:11;;;;;;;13.27;5.68;;;;;;;7.17;59.08;101472.62;4374700;32;20075;-74
2021/04/19 00:13:38;;;;;;;13.93;6.30;;;;;;;7.14;58.97;101467.84;4375383;32;20321;-74
2021/04/19 00:16:05;;;;;;;16.77;6.50;;;;;;;7.10;58.96;101471.81;4373850;32;20101;-74
2021/04/19 00:18:31;;;;;;;14.73;5.95;;;;;;;7.15;58.59;101463.03;4371991;32;20548;-74
2021/04/19 00:20:57;;;;;;;13.90;5.22;;;;;;;7.05;58.76;101472.19;4371860;32;20030;-74
2021/04/19 00:23:23;;;;;;;10.80;4.87;;;;;;;7.05;58.90;101464.63;4379255;32;20065;-74
2021/04/19 00:25:49;;;;;;;14.45;5.40;;;;;;;7.06;58.53;101468.22;4373724;32;20482;-74
2021/04/19 00:28:14;;;;;;;15.60;4.70;;;;;;;7.01;58.27;101475.00;4373196;32;20900;-74
2021/04/19 00:30:41;;;;;;;14.48;5.57;;;;;;;6.87;58.40;101463.78;4369776;32;20428;-74
2021/04/19 00:33:06;;;;;;;12.70;4.80;;;;;;;6.80;58.53;101462.94;4373262;32;20039;-74
2021/04/19 00:35:33;;;;;;;12.50;5.40;;;;;;;6.76;58.31;101456.56;4373729;32;20057;-74
2021/04/19 00:37:59;;;;;;;12.50;5.05;;;;;;;6.78;58.19;101460.56;4373618;32;20050;-74
2021/04/19 00:40:24;;;;;;;10.07;4.50;;;;;;;6.79;57.93;101461.34;4374069;32;20089;-74
2021/04/19 00:42:56;;;;;;;12.90;4.50;;;;;;;6.65;58.13;101450.94;4372703;32;20062;-74
2021/04/19 00:45:22;;;;;;;10.90;4.90;;;;;;;6.62;58.23;101460.09;4380583;32;20584;-74
2021/04/19 00:47:49;;;;;;;14.68;5.00;;;;;;;6.53;58.33;101453.28;4372624;32;20027;-74
2021/04/19 00:50:24;;;;;;;10.15;4.45;;;;;;;6.54;58.21;101454.88;4373622;32;20064;-74
2021/04/19 00:52:51;;;;;;;14.05;5.12;;;;;;;6.50;58.65;101454.88;4368685;32;20031;-74
2021/04/19 00:55:18;;;;;;;16.37;6.00;;;;;;;6.42;59.06;101444.06;4371715;32;20031;-73
2021/04/19 00:57:44;;;;;;;11.00;4.90;;;;;;;6.42;59.28;101446.84;4374346;32;20061;-74
2021/04/19 01:00:16;;;;;;;12.00;5.57;;;;;;;6.43;59.46;101451.25;4373439;32;20359;-74
2021/04/19 01:02:42;;;;;;;11.50;5.07;;;;;;;6.41;59.86;101443.25;4369778;32;20131;-74
2021/04/19 01:05:13;;;;;;;11.15;4.43;;;;;;;6.37;59.81;101450.00;4371782;32;20109;-74
2021/04/19 01:07:39;;;;;;;12.32;4.87;;;;;;;6.52;58.61;101449.69;4373011;32;20097;-73
2021/04/19 01:10:06;;;;;;;10.65;4.15;;;;;;;6.32;58.86;101453.22;4371036;32;20065;-74
2021/04/19 01:12:32;;;;;;;10.10;4.40;;;;;;;6.28;58.87;101447.59;4374306;32;20434;-74
2021/04/19 01:14:57;;;;;;;10.05;4.62;;;;;;;6.19;58.85;101443.56;4374258;32;20042;-74
2021/04/19 01:17:23;;;;;;;9.07;3.45;;;;;;;6.21;58.75;101436.38;4372464;32;20084;-73
2021/04/19 01:19:50;;;;;;;11.70;4.35;;;;;;;6.17;58.80;101443.16;4372694;32;20088;-73
2021/04/19 01:22:16;;;;;;;9.18;4.00;;;;;;;6.24;58.33;101443.97;4368355;32;20057;-73
2021/04/19 01:24:42;;;;;;;12.43;4.47;;;;;;;6.08;58.82;101432.34;4372075;32;20042;-74
2021/04/19 01:27:08;;;;;;;10.05;4.18;;;;;;;5.98;59.19;101433.06;4375186;32;20064;-74
2021/04/19 01:29:34;;;;;;;12.75;4.28;;;;;;;5.93;59.07;101441.81;4374034;32;20481;-74
2021/04/19 01:32:00;;;;;;;12.07;4.15;;;;;;;5.87;59.39;101432.22;4372613;32;20039;-74
2021/04/19 01:34:26;;;;;;;9.85;3.70;;;;;;;5.80;59.79;101424.53;4373140;32;20064;-74
2021/04/19 01:36:51;;;;;;;12.40;4.32;;;;;;;5.86;59.43;101436.22;4374498;32;20066;-74
2021/04/19 01:39:18;;;;;;;12.95;4.00;;;;;;;5.77;59.24;101435.72;4372161;32;20464;-74
2021/04/19 01:41:45;;;;;;;11.15;4.20;;;;;;;5.72;59.36;101431.28;4370825;32;20035;-74
2021/04/19 01:44:13;;;;;;;12.27;4.87;;;;;;;5.68;59.56;101435.25;4374576;32;20069;-74
2021/04/19 01:46:39;;;;;;;8.90;4.12;;;;;;;5.61;60.05;101430.41;4370905;32;20378;-74
2021/04/19 01:49:15;;;;;;;10.85;3.83;;;;;;;5.54;60.31;101426.75;4376081;32;20086;-74
2021/04/19 01:51:41;;;;;;;15.05;4.12;;;;;;;5.55;60.40;101425.56;4370703;32;20137;-74
2021/04/19 01:54:08;;;;;;;10.98;4.30;;;;;;;5.52;60.31;101424.34;4373784;32;20031;-74
2021/04/19 01:56:34;;;;;;;12.00;4.12;;;;;;;5.47;60.42;101416.37;4373159;32;20042;-73
2021/04/19 01:59:01;;;;;;;10.02;4.22;;;;;;;5.45;60.49;101427.09;4372050;32;20057;-73
2021/04/19 02:01:28;;;;;;;10.90;4.03;;;;;;;5.46;60.41;101417.53;4373262;32;20054;-73
2021/04/19 02:06:42;;;;;;;12.63;4.62;;;;;;;5.50;60.67;101426.72;3984184;32;15078636;-74
2021/04/19 02:09:35;;;;;;;10.48;4.05;;;;;;;5.45;60.76;101417.91;4431805;32;20037;-74
2021/04/19 02:17:38;;;;;;;11.73;4.57;;;;;;;5.76;60.96;101437.69;3984327;32;15023050;-73
2021/04/19 02:20:13;;;;;;;13.88;4.70;;;;;;;5.76;60.96;101437.69;4432548;32;20352;-72
2021/04/19 02:22:44;;;;;;;14.18;4.40;;;;;;;5.30;61.64;101428.19;4434811;32;20056;-72
2021/04/19 02:25:23;;;;;;;12.50;4.18;;;;;;;5.24;61.76;101414.97;4435764;32;20418;-73
2021/04/19 02:28:02;;;;;;;9.77;4.00;;;;;;;5.22;61.52;101422.94;4433658;32;20621;-73
2021/04/19 02:30:35;;;;;;;9.27;4.00;;;;;;;5.22;61.31;101429.28;4432000;32;20033;-73
2021/04/19 02:33:03;;;;;;;7.20;3.12;;;;;;;5.22;61.28;101426.50;4434309;32;20029;-73
2021/04/19 02:35:32;;;;;;;12.15;3.62;;;;;;;5.15;61.43;101422.84;4436932;32;20065;-72
2021/04/19 02:37:59;;;;;;;8.43;3.70;;;;;;;5.14;61.55;101419.28;4433752;32;20052;-73
2021/04/19 02:40:27;;;;;;;12.25;4.10;;;;;;;5.12;61.65;101424.44;4430950;32;20065;-73
2021/04/19 02:42:55;;;;;;;11.82;4.65;;;;;;;5.06;61.74;101417.59;4434910;32;20041;-73
2021/04/19 02:45:23;;;;;;;8.25;3.62;;;;;;;5.09;61.54;101414.03;4432933;32;20064;-72
2021/04/19 02:47:50;;;;;;;7.15;3.40;;;;;;;5.10;61.53;101412.06;4432717;32;20480;-72
2021/04/19 02:50:20;;;;;;;9.05;4.00;;;;;;;5.12;61.65;101410.47;4431345;32;20064;-73
2021/04/19 02:52:47;;;;;;;7.80;3.62;;;;;;;5.07;61.58;101419.22;4432399;32;20417;-73
2021/04/19 02:55:15;;;;;;;8.82;3.30;;;;;;;5.07;61.45;101421.19;4433078;32;20107;-73
2021/04/19 02:57:51;;;;;;;6.85;3.30;;;;;;;5.03;61.57;101412.00;4436183;32;20064;-72
2021/04/19 03:00:21;;;;;;;8.10;3.42;;;;;;;4.98;61.56;101413.16;4430499;32;20597;-73
2021/04/19 03:02:47;;;;;;;8.07;4.00;;;;;;;4.92;61.88;101411.91;4430227;32;20343;-72
2021/04/19 03:05:15;;;;;;;12.02;4.10;;;;;;;4.92;61.80;101411.91;4432344;32;20042;-72
2021/04/19 03:07:47;;;;;;;13.23;4.72;;;;;;;4.88;62.18;101408.25;4430900;32;20098;-72
2021/04/19 03:10:18;;;;;;;10.82;4.65;;;;;;;4.94;62.41;101406.72;4427583;32;20108;-72
2021/04/19 03:12:49;;;;;;;9.77;4.80;;;;;;;4.90;63.19;101407.88;4436555;32;20037;-72
2021/04/19 03:15:19;;;;;;;7.40;3.60;;;;;;;4.86;63.58;101407.06;4431488;32;20045;-72
2021/04/19 03:17:46;;;;;;;12.10;4.60;;;;;;;4.80;62.94;101405.78;4430183;32;20124;-72
2021/04/19 03:22:50;;;;;;;7.70;3.78;;;;;;;5.19;61.98;101404.94;3954883;32;15724541;-74
2021/04/19 03:25:17;;;;;;;10.38;4.03;;;;;;;5.19;61.98;101404.94;4433424;32;20026;-74
2021/04/19 03:27:47;;;;;;;7.25;3.95;;;;;;;4.75;62.73;101404.16;4436505;32;20520;-74
2021/04/19 03:30:14;;;;;;;8.30;4.03;;;;;;;4.74;62.88;101407.31;4432135;32;20065;-74
2021/04/19 03:32:47;;;;;;;10.18;4.03;;;;;;;4.74;62.97;101388.63;4435389;32;20022;-74
2021/04/19 03:35:17;;;;;;;8.73;3.80;;;;;;;4.72;63.14;101399.34;4434558;32;20137;-74
2021/04/19 03:37:45;;;;;;;9.48;3.97;;;;;;;4.70;62.87;101389.78;4419920;32;20041;-74
2021/04/19 03:40:19;;;;;;;9.43;4.07;;;;;;;4.68;62.90;101398.50;4435551;32;20053;-74
2021/04/19 03:42:48;;;;;;;8.00;3.80;;;;;;;4.67;62.83;101396.09;4430740;32;20029;-74
2021/04/19 03:45:14;;;;;;;11.73;4.10;;;;;;;4.65;62.81;101396.50;4429185;32;20094;-74
2021/04/19 03:47:41;;;;;;;10.00;3.65;;;;;;;4.62;62.90;101391.69;4436111;32;20418;-74
2021/04/19 03:50:08;;;;;;;8.13;3.65;;;;;;;4.64;62.72;101391.31;4430138;32;20060;-74
2021/04/19 03:52:39;;;;;;;11.45;3.28;;;;;;;4.57;62.86;101389.22;4435072;32;20092;-74
2021/04/19 03:55:11;;;;;;;8.82;3.87;;;;;;;4.56;62.77;101390.41;4433212;32;20037;-74
2021/04/19 03:57:40;;;;;;;10.65;4.07;;;;;;;4.57;62.90;101391.22;4431811;32;20034;-74
2021/04/19 04:00:10;;;;;;;8.57;3.70;;;;;;;4.60;62.64;101385.69;4430812;32;20068;-74
2021/04/19 04:02:41;;;;;;;9.07;3.70;;;;;;;4.50;62.79;101386.37;4419611;32;20128;-74
2021/04/19 04:05:08;;;;;;;12.88;4.30;;;;;;;4.52;62.59;101383.19;4424533;32;20081;-74
2021/04/19 04:07:34;;;;;;;10.13;3.78;;;;;;;4.47;62.88;101383.53;4417698;32;20157;-74
2021/04/19 04:10:02;;;;;;;10.25;3.50;;;;;;;4.45;62.74;101383.13;4420807;32;20583;-74
2021/04/19 04:12:37;;;;;;;12.68;3.83;;;;;;;4.45;62.77;101380.34;4422864;32;20057;-74
2021/04/19 04:15:05;;;;;;;9.13;4.10;;;;;;;4.42;63.16;101381.12;4433062;32;20037;-74
2021/04/19 04:17:31;;;;;;;8.27;3.90;;;;;;;4.40;63.18;101383.47;4407026;32;20041;-74
2021/04/19 04:19:57;;;;;;;11.60;3.37;;;;;;;4.39;63.33;101384.66;4406381;32;20152;-74
2021/04/19 04:22:23;;;;;;;10.00;4.22;;;;;;;4.40;63.39;101369.53;4421344;32;20046;-74
2021/04/19 04:24:49;;;;;;;10.23;4.43;;;;;;;4.41;63.45;101374.72;4419509;32;20040;-74
2021/04/19 04:27:17;;;;;;;12.02;4.87;;;;;;;4.36;63.96;101377.06;4421969;32;20084;-74
2021/04/19 04:29:42;;;;;;;11.55;4.15;;;;;;;4.30;64.52;101381.38;4417952;32;20077;-74
2021/04/19 04:32:08;;;;;;;16.12;4.95;;;;;;;4.33;64.45;101370.28;4419563;32;21172;-74
2021/04/19 04:34:34;;;;;;;13.13;4.05;;;;;;;4.31;64.30;101378.22;4408421;32;20118;-74
2021/04/19 04:37:01;;;;;;;8.77;3.75;;;;;;;4.43;63.81;101377.94;4408618;32;20046;-74
2021/04/19 04:39:26;;;;;;;10.25;3.70;;;;;;;4.52;63.30;101370.09;4414459;32;20037;-74
2021/04/19 04:41:52;;;;;;;13.18;3.87;;;;;;;4.52;62.90;101378.44;4407984;32;20230;-74
2021/04/19 04:44:24;;;;;;;20.75;5.00;;;;;;;4.53;62.54;101380.03;4408936;32;20385;-74
2021/04/19 04:47:16;;;;;;;9.50;4.43;;;;;;;4.57;62.85;101380.09;4407582;32;20191;-74
2021/04/19 04:52:28;;;;;;;19.08;4.62;;;;;;;4.95;62.61;101383.25;3982595;32;15022174;-73
2021/04/19 04:54:55;;;;;;;11.07;4.53;;;;;;;4.95;62.61;101383.25;4436445;32;20090;-73
2021/04/19 04:57:24;;;;;;;15.55;4.18;;;;;;;4.50;63.42;101382.78;4439106;32;20468;-73
2021/04/19 04:59:52;;;;;;;7.62;3.25;;;;;;;4.48;62.74;101372.00;4435916;32;20041;-73
2021/04/19 05:02:20;;;;;;;13.10;4.50;;;;;;;4.47;62.48;101381.56;4424088;32;20101;-73
2021/04/19 05:04:47;;;;;;;10.73;3.90;;;;;;;4.47;62.19;101375.19;4423515;32;20045;-73
2021/04/19 05:07:13;;;;;;;8.98;4.00;;;;;;;4.47;62.24;101377.97;4423635;32;20034;-74
2021/04/19 05:09:38;;;;;;;12.20;4.70;;;;;;;4.44;62.45;101370.38;4421926;32;20081;-73
2021/04/19 05:12:05;;;;;;;12.75;4.25;;;;;;;4.45;62.40;101367.19;4421914;32;20382;-73
2021/04/19 05:14:32;;;;;;;11.95;5.00;;;;;;;4.44;62.39;101367.56;4422987;32;20045;-73
2021/04/19 05:16:58;;;;;;;13.32;5.43;;;;;;;4.34;62.94;101376.63;4421276;32;20525;-73
2021/04/19 05:19:23;;;;;;;13.65;6.30;;;;;;;4.41;62.96;101371.94;4422927;32;20034;-73
2021/04/19 05:21:49;;;;;;;13.27;6.00;;;;;;;4.37;63.47;101382.25;4424188;32;20059;-73
2021/04/19 05:24:15;;;;;;;14.35;4.60;;;;;;;4.44;63.33;101382.31;4422702;32;20067;-73
2021/04/19 05:26:41;;;;;;;11.05;4.47;;;;;;;4.51;62.90;101378.81;4421796;32;20030;-73
2021/04/19 05:29:06;;;;;;;14.75;5.53;;;;;;;4.49;62.85;101382.00;4419993;32;20041;-73
2021/04/19 05:31:32;;;;;;;14.00;5.00;;;;;;;4.44;63.19;101385.09;4421593;32;20064;-73
2021/04/19 05:33:58;;;;;;;19.25;5.80;;;;;;;4.46;63.37;101385.53;4422747;32;20095;-73
2021/04/19 05:36:26;;;;;;;15.38;5.20;;;;;;;4.50;63.61;101380.81;4423293;32;20042;-73
2021/04/19 05:38:52;;;;;;;15.60;4.95;;;;;;;4.57;63.64;101380.09;4420241;32;20092;-73
2021/04/19 05:41:20;;;;;;;15.00;5.12;;;;;;;4.63;63.09;101382.13;4423388;32;20222;-73
2021/04/19 05:43:46;;;;;;;10.18;4.10;;;;;;;4.60;62.89;101384.91;4422866;32;20018;-73
2021/04/19 05:46:14;;;;;;;7.85;3.78;;;;;;;4.77;62.47;101373.91;4422707;32;20523;-73
2021/04/19 05:48:43;;;;;;;15.35;4.10;;;;;;;4.84;62.12;101381.53;4422545;32;20043;-73
2021/04/19 05:51:14;;;;;;;13.40;4.53;;;;;;;4.95;61.98;101382.44;4416091;32;20127;-73
2021/04/19 05:53:40;;;;;;;8.40;4.32;;;;;;;5.03;61.16;101379.31;4419669;32;20110;-73
2021/04/19 05:56:22;;;;;;;13.07;4.25;;;;;;;5.02;61.27;101369.34;4416709;32;20109;-73
2021/04/19 05:59:01;;;;;;;10.20;4.72;;;;;;;5.09;60.48;101363.03;4417593;32;20677;-73
2021/04/19 06:01:28;;;;;;;10.55;4.35;;;;;;;5.21;60.47;101366.31;4420274;32;20378;-73
2021/04/19 06:04:15;;;;;;;14.18;5.03;;;;;;;5.29;60.27;101367.16;4409334;32;20098;-73
2021/04/19 06:06:57;;;;;;;9.52;4.60;;;;;;;5.37;59.35;101375.19;4408748;32;20084;-73
2021/04/19 06:09:29;;;;;;;12.23;4.60;;;;;;;5.49;59.17;101376.91;4412223;32;20054;-73
2021/04/19 06:12:00;;;;;;;11.43;4.20;;;;;;;5.50;58.93;101384.06;4412861;32;20388;-73
2021/04/19 06:14:30;;;;;;;10.50;5.00;;;;;;;5.55;59.31;101375.31;4411226;32;20030;-73
2021/04/19 06:16:59;;;;;;;14.05;5.07;;;;;;;5.75;58.87;101385.03;4409683;32;20049;-73
2021/04/19 06:19:27;;;;;;;16.33;5.45;;;;;;;5.85;58.86;101379.53;4411343;32;20042;-73
2021/04/19 06:21:53;;;;;;;15.73;5.07;;;;;;;5.96;59.05;101383.16;4413306;32;20034;-73
2021/04/19 06:24:21;;;;;;;10.15;5.18;;;;;;;6.04;58.89;101390.38;4412238;32;20034;-73
2021/04/19 06:26:48;;;;;;;14.60;4.95;;;;;;;6.19;58.97;101382.87;4409648;32;20072;-73
2021/04/19 06:29:14;;;;;;;15.00;5.90;;;;;;;6.33;59.09;101373.72;4409301;32;20074;-73
2021/04/19 06:31:45;;;;;;;14.23;5.90;;;;;;;6.40;59.03;101382.13;4408630;32;20103;-73
2021/04/19 06:34:12;;;;;;;15.45;6.50;;;;;;;6.58;58.54;101375.41;4406172;32;20026;-73
2021/04/19 06:36:42;;;;;;;19.40;6.60;;;;;;;6.70;58.15;101371.44;4403406;32;20045;-73
2021/04/19 06:39:10;;;;;;;16.37;5.80;;;;;;;6.85;57.89;101381.44;4405313;32;20100;-73
2021/04/19 06:41:36;;;;;;;12.00;5.62;;;;;;;7.01;57.37;101377.06;4404514;32;20289;-73
2021/04/19 06:44:03;;;;;;;21.23;6.32;;;;;;;7.11;56.62;101379.06;4401831;32;20373;-75
2021/04/19 06:46:33;;;;;;;13.70;4.78;;;;;;;7.10;56.18;101382.25;4407597;32;20739;-74
2021/04/19 06:48:59;;;;;;;14.63;5.40;;;;;;;7.32;55.48;101384.66;4398608;32;20069;-74
2021/04/19 06:51:25;;;;;;;14.35;5.85;;;;;;;7.46;55.03;101381.06;4399313;32;20633;-74
2021/04/19 06:53:53;;;;;;;11.75;5.12;;;;;;;7.59;54.99;101385.84;4392122;32;20083;-75
2021/04/19 06:56:24;;;;;;;17.08;5.60;;;;;;;7.76;54.50;101384.19;4400760;32;20539;-74
2021/04/19 06:58:52;;;;;;;15.68;5.10;;;;;;;7.88;53.68;101389.34;4402995;32;20073;-74
2021/04/19 07:01:20;;;;;;;15.65;5.95;;;;;;;8.00;53.09;101380.50;4398808;32;20057;-74
2021/04/19 07:03:55;;;;;;;14.50;5.53;;;;;;;8.25;52.58;101380.47;4405073;32;20080;-73
2021/04/19 07:06:26;;;;;;;18.52;5.65;;;;;;;8.38;52.06;101381.59;4403132;32;20101;-74
2021/04/19 07:08:58;;;;;;;27.98;6.53;;;;;;;8.57;51.49;101386.69;4398282;32;20046;-75
2021/04/19 07:11:27;;;;;;;15.98;6.90;;;;;;;8.71;51.33;101369.78;4401444;32;20065;-74
2021/04/19 07:13:54;;;;;;;16.73;6.40;;;;;;;8.80;50.79;101379.34;4393807;32;20074;-74
2021/04/19 07:16:20;;;;;;;22.40;6.28;;;;;;;8.81;50.31;101385.75;4404053;32;20068;-75
2021/04/19 07:18:46;;;;;;;15.38;6.95;;;;;;;8.99;49.72;101375.97;4403247;32;20060;-74
2021/04/19 07:21:12;;;;;;;18.92;7.30;;;;;;;9.16;49.61;101386.28;4401728;32;20057;-74
2021/04/19 07:23:39;;;;;;;19.37;7.18;;;;;;;9.28;49.39;101379.37;4400513;32;20716;-75
2021/04/19 07:26:06;;;;;;;17.50;6.90;;;;;;;9.34;49.01;101383.34;4402600;32;20143;-78
2021/04/19 07:28:37;;;;;;;17.95;7.10;;;;;;;9.47;49.01;101387.22;4393754;32;20650;-76
2021/04/19 07:31:05;;;;;;;14.40;6.68;;;;;;;9.42;49.14;101379.25;4403575;32;20085;-75
2021/04/19 07:33:33;;;;;;;23.95;7.28;;;;;;;9.52;49.61;101384.78;4400292;32;20050;-77
2021/04/19 07:38:58;;;;;;;17.95;7.12;;;;;;;9.81;49.76;101372.03;3955966;32;15021281;-76
2021/04/19 07:52:57;;;;;;;21.83;8.15;;;;;;;10.52;48.82;101371.19;3979150;32;15022323;-79
2021/04/19 07:55:25;;;;;;;20.80;7.62;;;;;;;10.59;48.91;101374.69;4432936;32;20143;-75
2021/04/19 07:57:52;;;;;;;21.45;7.97;;;;;;;10.47;49.26;101369.66;4436010;32;20810;-75
2021/04/19 08:05:48;;;;;;;32.47;10.27;;;;;;;11.60;48.01;101365.81;3975385;32;15026010;-75
2021/04/19 08:08:16;;;;;;;20.98;8.82;;;;;;;11.25;47.87;101364.41;4430391;32;20447;-74
2021/04/19 08:10:45;;;;;;;29.55;9.30;;;;;;;11.48;47.80;101357.97;4423343;32;20097;-75
2021/04/19 08:13:17;;;;;;;25.15;9.32;;;;;;;11.70;47.44;101362.03;4431530;32;20266;-76
2021/04/19 08:15:45;;;;;;;19.95;9.05;;;;;;;11.92;47.16;101352.72;4429316;32;20110;-78
2021/04/19 08:18:19;;;;;;;20.90;8.45;;;;;;;12.08;46.86;101354.81;4423062;32;20157;-76
2021/04/19 08:23:24;;;;;;;23.95;8.70;;;;;;;12.87;45.07;101355.50;3973665;32;15021575;-78
2021/04/19 08:25:52;;;;;;;60.92;21.80;;;;;;;12.87;45.07;101355.50;4427640;32;20064;-74
2021/04/19 08:28:25;;;;;;;21.27;7.62;;;;;;;12.69;45.04;101347.44;4430211;32;20278;-75
2021/04/19 08:30:54;;;;;;;19.10;7.82;;;;;;;13.04;43.54;101348.66;4425363;32;20065;-75
2021/04/19 08:33:21;;;;;;;21.15;8.00;;;;;;;13.29;43.29;101343.94;4426673;32;20207;-73
2021/04/19 08:35:50;;;;;;;18.85;7.75;;;;;;;13.57;42.01;101346.03;4429826;32;20194;-74
2021/04/19 08:38:20;;;;;;;19.90;8.00;;;;;;;13.96;41.18;101340.12;4431374;32;20620;-74
2021/04/19 08:40:48;;;;;;;26.10;8.45;;;;;;;14.24;40.96;101341.38;4430545;32;20419;-73
2021/04/19 08:43:24;;;;;;;31.37;7.85;;;;;;;14.21;40.87;101342.25;4426957;32;20103;-73
2021/04/19 08:45:50;;;;;;;20.27;7.85;;;;;;;14.58;39.92;101347.22;4427722;32;20270;-73
2021/04/19 08:48:16;;;;;;;22.95;7.60;;;;;;;14.90;39.17;101340.53;4428116;32;20049;-73
2021/04/19 08:50:46;;;;;;;19.10;8.80;;;;;;;15.33;38.58;101347.19;4430389;32;20355;-74
2021/04/19 08:53:14;;;;;;;19.95;7.93;;;;;;;15.70;37.48;101345.50;4426686;32;20057;-75
2021/04/19 08:55:41;;;;;;;31.52;7.85;;;;;;;15.92;37.17;101346.34;4427931;32;20045;-75
2021/04/19 08:58:09;;;;;;;24.30;8.73;;;;;;;16.30;36.43;101344.12;4430848;32;20033;-75
2021/04/19 09:00:38;;;;;;;20.27;8.80;;;;;;;16.76;35.50;101340.31;4423546;32;20069;-74
2021/04/19 09:03:06;;;;;;;12.57;6.72;;;;;;;17.18;34.35;101340.62;4416892;32;20084;-74
2021/04/19 09:05:32;;;;;;;22.40;7.68;;;;;;;17.61;33.59;101340.41;4415929;32;20076;-75
2021/04/19 09:08:05;;;;;;;19.80;7.68;;;;;;;17.49;33.18;101339.28;4416106;32;20105;-74
2021/04/19 09:11:01;;;;;;;21.12;8.57;;;;;;;17.53;33.49;101337.09;4414321;32;20072;-74
2021/04/19 09:24:11;;;;;;;18.62;7.65;;;;;;;19.77;30.42;101341.81;3975175;32;15022454;-75
2021/04/19 09:26:55;;;;;;;16.45;7.25;;;;;;;19.77;30.42;101341.81;4424631;32;20050;-75
2021/04/19 09:32:03;;;;;;;20.12;7.37;;;;;;;19.54;30.73;101331.19;3971724;32;15040519;-74
2021/04/19 09:37:33;;;;;;;19.48;8.43;;;;;;;19.61;30.29;101334.47;3968078;32;15022984;-75
2021/04/19 09:40:06;;;;;;;18.75;7.55;;;;;;;19.61;30.29;101334.47;4419815;32;20044;-74
2021/04/19 09:59:04;;;;;;;11.88;6.70;;;;;;;20.80;26.90;101320.66;3975557;32;15023474;-73
2021/04/19 10:01:31;;;;;;;16.67;6.72;;;;;;;20.93;26.41;101323.97;4421356;32;20123;-76
2021/04/19 10:03:59;;;;;;;16.00;6.90;;;;;;;21.09;26.32;101327.12;4418182;32;20092;-74
2021/04/19 10:06:28;;;;;;;9.73;5.95;;;;;;;20.82;26.54;101321.72;4415882;32;20096;-75
2021/04/19 10:08:56;;;;;;;15.32;6.50;;;;;;;20.90;26.51;101317.16;4417172;32;20657;-73
2021/04/19 10:11:26;;;;;;;14.57;6.40;;;;;;;21.04;26.37;101315.59;4419819;32;20481;-75
2021/04/19 10:13:52;;;;;;;15.35;6.95;;;;;;;21.50;26.00;101314.44;4419383;32;20088;-76
2021/04/19 10:16:18;;;;;;;14.55;6.93;;;;;;;21.64;25.72;101309.94;4416284;32;21283;-73
2021/04/19 10:18:51;;;;;;;16.20;6.57;;;;;;;21.79;25.62;101310.69;4418995;32;20070;-75
2021/04/19 10:21:32;;;;;;;17.17;6.85;;;;;;;21.88;25.49;101304.00;4414917;32;20038;-74
2021/04/19 10:23:59;;;;;;;13.75;6.50;;;;;;;22.12;25.02;101299.56;4414780;32;20058;-74
2021/04/19 10:26:30;;;;;;;14.20;6.60;;;;;;;22.45;24.70;101302.78;4416155;32;20039;-73
2021/04/19 10:28:56;;;;;;;14.82;7.10;;;;;;;22.21;25.00;101296.53;4415211;32;20074;-74
2021/04/19 10:31:22;;;;;;;15.70;7.22;;;;;;;22.51;24.52;101302.84;4417900;32;20081;-73
2021/04/19 10:33:52;;;;;;;13.95;7.25;;;;;;;22.67;24.24;101293.63;4420074;32;20498;-74
2021/04/19 10:36:29;;;;;;;15.48;6.97;;;;;;;22.81;23.79;101295.56;4418286;32;20434;-74
2021/04/19 10:38:59;;;;;;;18.75;6.93;;;;;;;22.76;23.86;101281.94;4416737;32;20085;-74
2021/04/19 10:41:40;;;;;;;20.15;6.50;;;;;;;22.72;24.25;101284.25;4419430;32;20092;-73
2021/04/19 10:44:08;;;;;;;14.40;7.18;;;;;;;23.26;23.24;101286.75;4415977;32;21277;-74
2021/04/19 10:46:37;;;;;;;18.25;7.40;;;;;;;23.59;22.66;101288.22;4418781;32;20132;-74
2021/04/19 10:49:04;;;;;;;18.73;7.03;;;;;;;23.87;22.46;101278.38;4416862;32;20135;-74
2021/04/19 10:51:33;;;;;;;16.50;7.43;;;;;;;23.89;22.32;101284.41;4413946;32;20049;-74
2021/04/19 10:54:03;;;;;;;12.13;6.95;;;;;;;24.03;21.98;101286.31;4419435;32;20069;-74
2021/04/19 10:56:30;;;;;;;14.75;7.00;;;;;;;23.91;22.04;101281.81;4415472;32;20438;-74
2021/04/19 10:59:02;;;;;;;18.42;7.62;;;;;;;24.31;21.71;101281.41;4418011;32;20256;-74
2021/04/19 11:01:31;;;;;;;14.93;7.37;;;;;;;24.57;21.20;101281.94;4416996;32;20097;-74
2021/04/19 11:03:59;;;;;;;14.25;6.78;;;;;;;24.64;20.82;101275.69;4415619;32;20372;-73
2021/04/19 11:06:25;;;;;;;15.13;7.70;;;;;;;24.78;20.88;101265.22;4417371;32;20176;-76
2021/04/19 11:19:46;;;;;;;13.50;7.12;;;;;;;25.97;19.15;101255.13;3969112;32;15029616;-76
2021/04/19 11:22:32;;;;;;;18.23;6.90;;;;;;;25.97;19.15;101255.13;4424766;32;20524;-74
2021/04/19 11:28:11;;;;;;;13.68;6.93;;;;;;;26.56;18.31;101261.81;3976413;32;15024368;-75
2021/04/19 11:30:38;;;;;;;11.30;6.25;;;;;;;26.56;18.31;101261.81;4428705;32;20142;-75
2021/04/19 11:35:45;;;;;;;14.47;5.97;;;;;;;27.47;16.80;101253.31;3993447;31;15014147;-74
2021/04/19 11:38:16;;;;;;;11.57;6.57;;;;;;;27.47;16.80;101253.31;4445719;32;20041;-77
2021/04/19 11:40:44;;;;;;;15.23;5.90;;;;;;;27.16;17.01;101251.00;4445903;32;20483;-74
2021/04/19 11:43:28;;;;;;;15.85;6.65;;;;;;;27.21;17.10;101255.94;4446096;32;20322;-76
2021/04/19 11:45:58;;;;;;;22.37;6.60;;;;;;;27.65;16.69;101254.66;4448811;32;20158;-76
2021/04/19 11:48:24;;;;;;;12.45;6.28;;;;;;;27.73;16.44;101253.47;4448676;32;20405;-75
2021/04/19 11:50:50;;;;;;;10.25;5.78;;;;;;;27.67;16.39;101252.00;4445991;32;20041;-75
2021/04/19 11:53:33;;;;;;;11.40;5.75;;;;;;;27.42;16.38;101251.25;4448706;32;20112;-76
2021/04/19 11:56:00;;;;;;;10.60;5.82;;;;;;;27.19;16.40;101250.69;4449680;32;20495;-77
2021/04/19 11:58:26;;;;;;;12.35;5.03;;;;;;;27.13;16.24;101247.09;4441755;32;20531;-75
2021/04/19 12:00:54;;;;;;;9.32;5.32;;;;;;;27.10;15.94;101244.50;4444537;32;20068;-76
2021/04/19 12:03:21;;;;;;;8.95;4.43;;;;;;;26.77;15.53;101236.97;4447666;32;20212;-76
2021/04/19 12:05:47;;;;;;;8.30;4.90;;;;;;;26.76;15.00;101234.63;4443284;32;20384;-75
2021/04/19 12:08:13;;;;;;;12.77;5.35;;;;;;;26.82;15.42;101238.25;4448687;32;20089;-76
2021/04/19 12:10:40;;;;;;;13.25;5.53;;;;;;;26.90;15.66;101239.19;4449932;32;20726;-74
2021/04/19 12:13:05;;;;;;;11.32;5.50;;;;;;;27.00;16.08;101234.66;4443973;32;20049;-76
2021/04/19 12:15:31;;;;;;;13.48;6.00;;;;;;;26.78;16.34;101231.97;4449678;32;20102;-75
2021/04/19 12:17:57;;;;;;;15.43;5.78;;;;;;;26.57;16.62;101227.97;4450223;32;20080;-75
2021/04/19 12:20:24;;;;;;;14.45;5.60;;;;;;;26.48;16.69;101226.16;4438278;32;20099;-77
2021/04/19 12:22:50;;;;;;;10.32;5.87;;;;;;;26.22;16.73;101225.88;4449768;32;20448;-75
2021/04/19 12:25:16;;;;;;;18.30;6.15;;;;;;;25.97;17.02;101227.06;4448639;32;20437;-75
2021/04/19 12:27:42;;;;;;;10.93;5.25;;;;;;;26.00;16.81;101222.34;4446622;32;20194;-77
2021/04/19 12:30:09;;;;;;;12.77;5.60;;;;;;;26.01;16.46;101218.19;4448323;32;20102;-77
2021/04/19 12:32:34;;;;;;;14.70;6.07;;;;;;;25.83;17.44;101215.91;4445398;32;20049;-76
2021/04/19 12:35:01;;;;;;;10.07;5.05;;;;;;;25.64;18.09;101209.97;4446815;32;20141;-79
2021/04/19 12:37:27;;;;;;;10.00;5.60;;;;;;;25.83;17.92;101210.13;4449518;32;20053;-76
2021/04/19 12:39:52;;;;;;;17.95;6.47;;;;;;;26.18;17.80;101213.84;4446447;32;20595;-76
2021/04/19 12:42:18;;;;;;;13.48;6.43;;;;;;;26.54;18.07;101200.94;4447136;32;20062;-75
2021/04/19 12:44:44;;;;;;;13.68;6.20;;;;;;;26.82;18.11;101206.47;4449333;32;20520;-77
2021/04/19 12:47:10;;;;;;;13.50;6.00;;;;;;;27.17;18.11;101210.03;4435639;32;20061;-75
2021/04/19 12:49:35;;;;;;;11.05;6.37;;;;;;;27.79;16.82;101204.25;4435310;32;20049;-74
2021/04/19 12:52:01;;;;;;;12.20;6.10;;;;;;;27.89;16.69;101200.41;4437849;32;21195;-75
2021/04/19 12:54:27;;;;;;;13.27;6.05;;;;;;;27.44;17.01;101192.87;4438505;32;20504;-74